KBRD/BRD METAR and TAF weather

Enter ICAO airport designator
Station Type Date Time Source
KBRD METAR 2019/04/24 21:53 UTC NOAA

KBRD 242153Z AUTO 26017G23KT 10SM SCT090 26/04 A2963 RMK AO2 SLP033 T02560044


Station Type Date Time Source
KBRD Decoded METAR 2019/04/24 21:53 UTC NOAA

BRAINERD-CROW WING CO AIRPORT , MN, United States (KBRD) 46-24N 94-08W 372M
Apr 24, 2019 - 05:53 PM EDT / 2019.04.24 2153 UTC
Wind: from the W (260 degrees) at 20 MPH (17 KT) gusting to 26 MPH (23 KT):0
Visibility: 10 mile(s):0
Sky conditions: partly cloudy
Temperature: 78.1 F (25.6 C)
Dew Point: 39.9 F (4.4 C)
Relative Humidity: 25%
Pressure (altimeter): 29.63 in. Hg (1003 hPa)
ob: KBRD 242153Z AUTO 26017G23KT 10SM SCT090 26/04 A2963 RMK AO2 SLP033 T02560044
cycle: 22

Station Type Date Time Source
KBRD TAF 2019/04/24 20:04 UTC NOAA

TAF
AMD KBRD 242002Z 2420/2518 24012G20KT P6SM FEW200
FM242200 26011KT P6SM VCSH BKN120
FM250000 29008KT P6SM BKN180
FM250300 VRB04KT P6SM SCT200

Example: see airport list